Terminal Aerodrome Forecast
Issued by NWS Wilmington, OH

Current Version | Previous Version | Text Only | Print | Product List | Glossary Off
Versions: 1 2 3 4 5 6 7 8 9 10 11 12 13 14

659
FTUS41 KILN 191720
TAFCMH
TAF
KCMH 191720Z 1918/2018 23010KT P6SM FEW250
     FM192300 23004KT P6SM FEW250
     FM201500 18004KT P6SM FEW250=

USA.gov is the U.S. government's official web portal to all federal, state and local government web resources and services.